Time;durP1;ratioP1;P1;durP2;ratioP2;P2;SDS_P1;SDS_P2;PMS_P1;PMS_P2;Temp;Humidity;BMP_temperature;BMP_pressure;BME280_temperature;BME280_humidity;BME280_pressure;Samples;Min_cycle;Max_cycle;Signal;HPM_P1;HPM_P2
2023/01/25 00:02:07;;;;;;;40.30;21.20;;;;;;;-0.49;74.12;102648.27;105652;1260;72651;-85
2023/01/25 00:04:35;;;;;;;31.20;18.30;;;;;;;-0.46;74.28;102648.16;105519;1261;64698;-87
2023/01/25 00:07:01;;;;;;;37.50;21.90;;;;;;;-0.41;74.28;102647.74;105471;1264;73360;-86
2023/01/25 00:09:28;;;;;;;27.10;17.20;;;;;;;-0.38;74.38;102646.25;105441;1261;61955;-87
2023/01/25 00:12:02;;;;;;;28.80;16.60;;;;;;;-0.35;74.32;102641.49;105636;1263;61125;-88
2023/01/25 00:14:30;;;;;;;28.80;17.10;;;;;;;-0.31;74.31;102647.73;105388;1265;72524;-86
2023/01/25 00:16:57;;;;;;;30.80;18.00;;;;;;;-0.25;74.39;102641.15;106549;1256;65607;-84
2023/01/25 00:19:24;;;;;;;29.90;17.90;;;;;;;-0.20;73.93;102637.80;109442;1257;73143;-83
2023/01/25 00:21:51;;;;;;;28.60;17.90;;;;;;;-0.24;73.74;102638.08;107838;1260;59758;-86
2023/01/25 00:24:22;;;;;;;27.60;17.20;;;;;;;-0.23;73.52;102640.50;105721;1257;59720;-84
2023/01/25 00:26:48;;;;;;;29.70;17.70;;;;;;;-0.25;73.37;102637.54;105502;1258;73030;-85
2023/01/25 00:29:16;;;;;;;39.80;20.70;;;;;;;-0.24;73.17;102636.54;105423;1260;63757;-85
2023/01/25 00:31:58;;;;;;;30.90;18.20;;;;;;;-0.26;73.16;102640.29;105463;1264;73679;-85
2023/01/25 00:34:25;;;;;;;32.00;18.10;;;;;;;-0.29;73.04;102640.73;105481;1261;61094;-86
2023/01/25 00:37:13;;;;;;;25.60;17.30;;;;;;;-0.30;72.93;102632.64;105537;1261;62184;-85
2023/01/25 00:39:40;;;;;;;26.90;17.00;;;;;;;-0.36;72.81;102639.39;105460;1264;73012;-88
2023/01/25 00:42:11;;;;;;;25.60;16.40;;;;;;;-0.41;73.21;102635.19;105478;1263;63116;-87
2023/01/25 00:44:38;;;;;;;30.70;16.80;;;;;;;-0.43;73.50;102636.20;105684;1263;73870;-84
2023/01/25 00:47:11;;;;;;;29.00;18.60;;;;;;;-0.42;73.62;102634.48;105638;1261;60653;-86
2023/01/25 00:49:39;;;;;;;29.00;20.40;;;;;;;-0.39;73.60;102636.44;105694;1258;61315;-85
2023/01/25 00:52:06;;;;;;;26.00;16.80;;;;;;;-0.34;73.55;102638.94;105767;1261;72050;-85
2023/01/25 00:54:35;;;;;;;32.00;17.60;;;;;;;-0.31;73.38;102632.45;105568;1260;63727;-84
2023/01/25 00:57:02;;;;;;;29.70;16.70;;;;;;;-0.31;73.31;102632.77;105567;1264;73008;-86
2023/01/25 00:59:29;;;;;;;30.70;18.70;;;;;;;-0.32;73.34;102630.71;105341;1266;60433;-83
2023/01/25 01:01:56;;;;;;;31.20;18.60;;;;;;;-0.36;73.32;102627.02;105331;1265;61304;-82
2023/01/25 01:04:23;;;;;;;39.20;20.00;;;;;;;-0.40;73.24;102622.67;105351;1266;73802;-84
2023/01/25 01:06:52;;;;;;;30.40;19.30;;;;;;;-0.43;73.35;102622.09;105409;1265;64786;-84
2023/01/25 01:09:20;;;;;;;29.00;17.90;;;;;;;-0.45;73.44;102619.66;105775;1261;73474;-85
2023/01/25 01:11:47;;;;;;;27.60;15.90;;;;;;;-0.48;73.46;102618.05;105269;1266;60945;-84
2023/01/25 01:14:17;;;;;;;28.70;15.70;;;;;;;-0.50;73.78;102615.61;105328;1263;60196;-87
2023/01/25 01:16:47;;;;;;;30.30;16.90;;;;;;;-0.48;73.91;102615.31;105378;1265;73896;-85
2023/01/25 01:19:14;;;;;;;27.30;18.30;;;;;;;-0.48;73.77;102613.77;105364;1263;64568;-85
2023/01/25 01:21:41;;;;;;;31.00;18.40;;;;;;;-0.47;74.05;102610.01;105215;1260;72907;-87
2023/01/25 01:24:09;;;;;;;32.60;18.70;;;;;;;-0.42;74.03;102610.61;105269;1259;59750;-83
2023/01/25 01:26:37;;;;;;;32.50;18.10;;;;;;;-0.40;73.92;102605.33;105347;1264;61014;-85
2023/01/25 01:29:04;;;;;;;30.50;17.10;;;;;;;-0.39;73.99;102603.79;105485;1263;73316;-87
2023/01/25 01:31:32;;;;;;;32.80;17.30;;;;;;;-0.39;73.70;102597.42;105436;1264;64622;-86
2023/01/25 01:34:09;;;;;;;29.60;16.70;;;;;;;-0.43;73.45;102593.92;105475;1262;72989;-86
2023/01/25 01:36:37;;;;;;;30.10;18.10;;;;;;;-0.48;73.40;102588.01;105403;1257;61260;-86
2023/01/25 01:39:05;;;;;;;26.60;14.90;;;;;;;-0.50;73.54;102590.54;105500;1264;61187;-85
2023/01/25 01:41:32;;;;;;;26.80;16.40;;;;;;;-0.52;73.45;102590.16;107726;1260;72970;-83
2023/01/25 01:43:59;;;;;;;27.70;17.00;;;;;;;-0.50;73.58;102587.61;109490;1257;63759;-83
2023/01/25 01:46:33;;;;;;;27.70;15.50;;;;;;;-0.45;73.66;102585.98;106137;1262;72810;-84
2023/01/25 01:49:06;;;;;;;29.50;16.30;;;;;;;-0.46;73.49;102582.02;105458;1265;60865;-86
2023/01/25 01:51:54;;;;;;;24.90;16.30;;;;;;;-0.47;73.52;102577.03;105571;1261;60176;-86
2023/01/25 01:54:34;;;;;;;29.70;14.60;;;;;;;-0.48;73.34;102577.19;105528;1260;73059;-86
2023/01/25 01:57:06;;;;;;;25.90;15.40;;;;;;;-0.54;73.37;102575.86;105729;1257;65784;-85
2023/01/25 01:59:41;;;;;;;24.60;15.30;;;;;;;-0.62;73.34;102573.66;105645;1263;74135;-85
2023/01/25 02:02:08;;;;;;;26.00;17.40;;;;;;;-0.69;73.59;102577.83;105495;1263;59758;-86
2023/01/25 02:04:35;;;;;;;27.10;15.30;;;;;;;-0.68;73.60;102578.38;105702;1262;60314;-83
2023/01/25 02:07:10;;;;;;;26.20;17.40;;;;;;;-0.66;73.82;102572.39;105412;1257;73707;-84
2023/01/25 02:09:37;;;;;;;27.10;17.60;;;;;;;-0.63;73.86;102567.63;105501;1260;64170;-85
2023/01/25 02:12:05;;;;;;;28.50;17.40;;;;;;;-0.60;74.01;102567.19;105480;1261;73584;-82
2023/01/25 02:14:33;;;;;;;27.60;15.70;;;;;;;-0.58;74.22;102567.20;108040;1257;59531;-83
2023/01/25 02:17:02;;;;;;;28.10;15.30;;;;;;;-0.59;74.15;102567.70;106582;1257;60766;-85
2023/01/25 02:19:44;;;;;;;26.70;16.40;;;;;;;-0.62;74.08;102567.48;105618;1263;73845;-85
2023/01/25 02:22:15;;;;;;;27.60;16.00;;;;;;;-0.68;73.98;102569.77;105539;1263;64729;-86
2023/01/25 02:24:45;;;;;;;29.60;15.90;;;;;;;-0.73;74.18;102572.60;105670;1262;72330;-86
2023/01/25 02:27:12;;;;;;;25.60;15.80;;;;;;;-0.79;74.23;102570.27;105759;1258;59663;-84
2023/01/25 02:29:39;;;;;;;23.10;15.00;;;;;;;-0.84;74.33;102572.73;105594;1261;60128;-84
2023/01/25 02:32:06;;;;;;;30.10;16.30;;;;;;;-0.90;74.27;102570.92;105466;1262;74018;-84
2023/01/25 02:34:35;;;;;;;29.60;15.60;;;;;;;-0.92;74.56;102565.55;105725;1258;64411;-84
2023/01/25 02:37:02;;;;;;;23.70;15.70;;;;;;;-0.90;74.97;102568.15;105747;1263;74262;-86
2023/01/25 02:39:29;;;;;;;22.40;15.40;;;;;;;-0.84;75.43;102568.96;105458;1258;60928;-86
2023/01/25 02:41:56;;;;;;;31.80;16.40;;;;;;;-0.74;75.58;102572.06;105461;1260;59967;-85
2023/01/25 02:44:29;;;;;;;27.00;15.70;;;;;;;-0.65;75.42;102570.86;105648;1263;73884;-85
2023/01/25 02:46:56;;;;;;;26.00;15.70;;;;;;;-0.59;75.14;102573.71;105407;1262;63881;-85
2023/01/25 02:49:24;;;;;;;27.20;15.40;;;;;;;-0.59;74.80;102572.52;105621;1262;72369;-83
2023/01/25 02:51:56;;;;;;;25.80;16.10;;;;;;;-0.57;74.85;102566.88;105573;1257;60491;-85
2023/01/25 02:54:24;;;;;;;25.40;16.40;;;;;;;-0.56;74.60;102568.09;105595;1262;60476;-85
2023/01/25 02:56:51;;;;;;;25.60;16.40;;;;;;;-0.59;74.58;102565.81;105756;1258;74824;-85
2023/01/25 02:59:18;;;;;;;23.40;15.00;;;;;;;-0.65;74.53;102566.41;105860;1257;65043;-84
2023/01/25 03:01:49;;;;;;;26.30;15.70;;;;;;;-0.68;74.55;102562.05;105834;1264;73707;-86
2023/01/25 03:04:16;;;;;;;25.80;16.70;;;;;;;-0.71;74.67;102560.80;107737;1257;61261;-83
2023/01/25 03:06:43;;;;;;;25.40;17.20;;;;;;;-0.71;74.83;102558.38;109700;1254;61308;-84
2023/01/25 03:09:10;;;;;;;23.60;13.80;;;;;;;-0.67;75.13;102558.45;107924;1254;74231;-85
2023/01/25 03:11:40;;;;;;;22.10;14.30;;;;;;;-0.60;75.17;102558.56;106000;1257;64735;-85
2023/01/25 03:14:11;;;;;;;24.10;15.80;;;;;;;-0.55;75.34;102558.67;106012;1257;72983;-86
2023/01/25 03:16:38;;;;;;;24.30;16.50;;;;;;;-0.50;75.10;102560.64;105849;1257;60625;-86
2023/01/25 03:19:05;;;;;;;27.40;16.00;;;;;;;-0.45;75.01;102560.38;105942;1253;61335;-84
2023/01/25 03:21:32;;;;;;;23.10;15.10;;;;;;;-0.43;74.48;102559.57;105817;1260;75038;-86
2023/01/25 03:24:00;;;;;;;33.10;16.30;;;;;;;-0.44;74.56;102564.35;105950;1257;63785;-83
2023/01/25 03:27:09;;;;;;;24.90;16.40;;;;;;;-0.46;74.43;102564.67;105780;1254;73626;-84
2023/01/25 03:41:21;;;;;;;25.40;14.80;;;;;;;-0.52;75.08;102563.53;102616;1292;615162;-85
2023/01/25 03:43:49;;;;;;;25.90;15.90;;;;;;;-0.50;75.10;102560.48;104950;1269;60922;-87
2023/01/25 03:46:17;;;;;;;24.00;15.80;;;;;;;-0.47;75.04;102566.36;105678;1259;60759;-84
2023/01/25 03:48:44;;;;;;;23.50;16.00;;;;;;;-0.41;75.18;102557.69;105594;1261;73203;-84
2023/01/25 03:51:11;;;;;;;25.40;16.10;;;;;;;-0.36;75.04;102560.88;105538;1259;63690;-83
2023/01/25 03:53:38;;;;;;;22.90;14.90;;;;;;;-0.32;74.93;102566.27;104907;1262;757850;-86
2023/01/25 03:56:10;;;;;;;27.10;15.80;;;;;;;-0.31;74.80;102564.38;105776;1259;59638;-85
2023/01/25 03:58:38;;;;;;;29.30;18.00;;;;;;;-0.33;74.42;102566.08;105875;1258;61365;-85
2023/01/25 04:01:07;;;;;;;23.50;15.90;;;;;;;-0.38;74.66;102569.61;105755;1255;73876;-87
2023/01/25 04:03:34;;;;;;;32.80;18.30;;;;;;;-0.37;74.73;102567.21;105744;1258;63838;-83
2023/01/25 04:06:01;;;;;;;23.90;14.90;;;;;;;-0.37;74.91;102566.35;105632;1259;72058;-84
2023/01/25 04:08:28;;;;;;;21.90;16.00;;;;;;;-0.34;75.14;102567.78;105772;1255;61029;-85
2023/01/25 04:11:02;;;;;;;23.20;13.50;;;;;;;-0.30;75.26;102567.67;105795;1257;60601;-84
2023/01/25 04:13:29;;;;;;;27.10;14.00;;;;;;;-0.27;75.05;102566.87;105803;1255;74272;-85
2023/01/25 04:15:56;;;;;;;36.50;17.40;;;;;;;-0.29;74.83;102564.42;105759;1257;64577;-82
2023/01/25 04:18:44;;;;;;;23.80;15.80;;;;;;;-0.35;74.87;102563.66;105779;1260;73837;-84
2023/01/25 08:22:47;;;;;;;19.10;12.50;;;;;;;1.43;71.74;102530.95;98606;1287;61224;-94
2023/01/25 08:27:42;;;;;;;22.10;12.90;;;;;;;1.37;71.53;102526.09;104405;1299;62389;-94
2023/01/25 08:35:16;;;;;;;21.80;11.80;;;;;;;1.47;71.54;102512.21;109385;1253;58841;-93
2023/01/25 08:37:47;;;;;;;20.10;12.80;;;;;;;1.50;71.27;102508.79;108033;1254;60796;-94
2023/01/25 08:40:39;;;;;;;26.90;12.70;;;;;;;1.48;70.96;102500.16;108072;1253;71617;-95
2023/01/25 08:43:09;;;;;;;28.50;13.10;;;;;;;1.48;71.03;102494.98;109798;1253;64599;-95
2023/01/25 08:49:00;;;;;;;21.60;13.30;;;;;;;1.54;70.79;102496.76;106524;1283;612995;-92
2023/01/25 08:57:09;;;;;;;18.70;10.80;;;;;;;1.37;69.98;102478.52;108495;1263;59548;-94
2023/01/25 09:01:00;;;;;;;20.40;10.60;;;;;;;1.26;70.21;102474.30;105431;1260;4225981;-93
2023/01/25 09:04:18;;;;;;;40.90;23.10;;;;;;;1.22;70.25;102469.63;109302;1257;63830;-94
2023/01/25 09:11:18;;;;;;;;;;;;;;;1.30;70.14;102469.85;108860;1258;58497;31
2023/01/25 09:15:43;;;;;;;;;;;;;;;;;;;;;
2023/01/25 09:39:37;;;;;;;15.20;10.00;;;;;;;1.54;70.11;102444.88;108695;1265;65147;-93
2023/01/25 09:43:00;;;;;;;22.90;10.10;;;;;;;1.62;69.80;102439.58;107548;1266;73720;-93
2023/01/25 09:45:35;;;;;;;15.20;9.40;;;;;;;1.67;69.66;102438.75;108404;1265;59782;-94
2023/01/25 09:55:24;;;;;;;15.70;10.60;;;;;;;1.74;69.21;102426.55;108221;1265;63178;-93
2023/01/25 09:58:38;;;;;;;22.60;11.10;;;;;;;1.75;69.23;102421.20;108780;1267;71369;-94
2023/01/25 10:02:43;;;;;;;15.00;9.70;;;;;;;1.71;69.35;102418.42;108280;1258;60614;31
2023/01/25 10:07:37;;;;;;;18.30;10.00;;;;;;;1.69;69.59;102410.83;107939;1276;59310;-94
2023/01/25 10:37:12;;;;;;;16.60;9.00;;;;;;;2.01;68.55;102393.75;108277;1263;63124;-94
2023/01/25 10:40:23;;;;;;;24.60;11.60;;;;;;;2.05;68.56;102392.55;108311;1270;59443;-94
2023/01/25 10:44:20;;;;;;;17.90;9.60;;;;;;;2.15;68.58;102385.17;108264;1270;71791;-95
2023/01/25 10:47:56;;;;;;;17.40;10.20;;;;;;;2.34;68.65;102382.30;108637;1260;63213;-95
2023/01/25 10:51:54;;;;;;;18.70;9.90;;;;;;;2.74;68.61;102381.86;108344;1264;71549;-95
2023/01/25 10:55:25;;;;;;;16.70;10.10;;;;;;;3.29;67.64;102382.70;108025;1264;59915;-95
2023/01/25 10:58:36;;;;;;;15.30;9.80;;;;;;;3.81;66.28;102381.20;108226;1264;59475;-92
2023/01/25 11:23:10;;;;;;;21.40;9.90;;;;;;;5.62;58.89;102366.73;108317;1257;63937;-92
2023/01/25 11:26:41;;;;;;;17.90;10.70;;;;;;;5.34;59.29;102362.85;107119;1280;72652;-94
2023/01/25 11:30:25;;;;;;;17.70;9.80;;;;;;;5.12;59.09;102363.41;107144;1279;58360;-92
2023/01/25 11:34:21;;;;;;;15.70;10.30;;;;;;;4.80;59.65;102361.26;107671;1262;58996;31
2023/01/25 11:56:23;;;;;;;18.60;8.70;;;;;;;3.71;62.52;102342.84;107553;1264;71533;-94
2023/01/25 11:59:48;;;;;;;20.80;8.80;;;;;;;3.71;62.56;102345.27;107439;1264;64072;-96
2023/01/25 12:03:11;;;;;;;15.30;8.60;;;;;;;3.65;62.92;102339.57;107576;1260;72058;-95
2023/01/25 12:06:25;;;;;;;21.90;9.30;;;;;;;3.66;62.73;102342.52;107135;1277;59571;-96
2023/01/25 12:27:59;;;;;;;10.20;6.60;;;;;;;4.00;62.30;102331.98;107536;1272;59526;-95
2023/01/25 12:32:49;;;;;;;13.40;6.60;;;;;;;4.21;62.14;102326.67;108015;1276;71669;-94
2023/01/25 12:48:23;;;;;;;24.10;12.60;;;;;;;4.54;60.66;102314.15;106119;1293;59038;-93
2023/01/25 12:51:41;;;;;;;12.50;7.10;;;;;;;4.44;60.43;102311.29;105810;1283;786993;-95
2023/01/25 12:54:36;;;;;;;10.90;6.80;;;;;;;4.32;60.77;102306.70;107397;1280;63780;-94
2023/01/25 12:58:10;;;;;;;15.10;6.70;;;;;;;4.29;60.62;102309.66;108056;1265;73768;-92
2023/01/25 13:02:12;;;;;;;10.60;6.40;;;;;;;4.22;60.89;102307.28;105525;1290;599344;-95
2023/01/25 17:31:26;;;;;;;328.70;149.60;;;;;;;-0.69;79.85;102304.77;109532;1260;71938;-96
2023/01/25 17:36:19;;;;;;;379.00;180.90;;;;;;;-0.53;79.01;102309.44;108988;1262;62326;-95
2023/01/25 17:40:04;;;;;;;318.00;147.50;;;;;;;-0.52;78.44;102308.77;111065;1248;71142;-94
